sensor_id;sensor_type;location;lat;lon;timestamp;pressure;altitude;pressure_sealevel;temperature;humidity
3780;BME280;1905;52.482;9.802;2023-08-31T00:01:32;100123.16;;;15.75;79.56
3780;BME280;1905;52.482;9.802;2023-08-31T00:04:00;100134.25;;;15.69;80.04
3780;BME280;1905;52.482;9.802;2023-08-31T00:06:28;100133.53;;;15.67;80.24
3780;BME280;1905;52.482;9.802;2023-08-31T00:08:56;100128.22;;;15.67;80.31
3780;BME280;1905;52.482;9.802;2023-08-31T00:11:25;100135.56;;;15.64;80.10
3780;BME280;1905;52.482;9.802;2023-08-31T00:13:52;100122.38;;;15.62;80.93
3780;BME280;1905;52.482;9.802;2023-08-31T00:16:23;100123.44;;;15.60;80.28
3780;BME280;1905;52.482;9.802;2023-08-31T00:18:52;100127.91;;;15.59;79.62
3780;BME280;1905;52.482;9.802;2023-08-31T00:21:21;100123.91;;;15.54;80.27
3780;BME280;1905;52.482;9.802;2023-08-31T00:23:48;100126.44;;;15.55;80.02
3780;BME280;1905;52.482;9.802;2023-08-31T00:26:16;100116.84;;;15.53;81.04
3780;BME280;1905;52.482;9.802;2023-08-31T00:28:48;100121.56;;;15.49;79.67
3780;BME280;1905;52.482;9.802;2023-08-31T00:31:15;100130.69;;;15.45;80.31
3780;BME280;1905;52.482;9.802;2023-08-31T00:33:43;100129.19;;;15.41;79.91
3780;BME280;1905;52.482;9.802;2023-08-31T00:36:12;100131.78;;;15.42;80.22
3780;BME280;1905;52.482;9.802;2023-08-31T00:38:40;100133.78;;;15.39;80.22
3780;BME280;1905;52.482;9.802;2023-08-31T00:41:07;100130.53;;;15.35;79.97
3780;BME280;1905;52.482;9.802;2023-08-31T00:43:35;100126.25;;;15.33;80.41
3780;BME280;1905;52.482;9.802;2023-08-31T00:46:04;100129.25;;;15.28;80.32
3780;BME280;1905;52.482;9.802;2023-08-31T00:48:32;100125.00;;;15.26;80.33
3780;BME280;1905;52.482;9.802;2023-08-31T00:51:00;100127.78;;;15.24;80.63
3780;BME280;1905;52.482;9.802;2023-08-31T00:53:29;100119.91;;;15.23;80.20
3780;BME280;1905;52.482;9.802;2023-08-31T00:55:59;100137.78;;;15.21;80.07
3780;BME280;1905;52.482;9.802;2023-08-31T00:58:27;100137.78;;;15.21;80.23
3780;BME280;1905;52.482;9.802;2023-08-31T01:01:00;100136.50;;;15.14;80.63
3780;BME280;1905;52.482;9.802;2023-08-31T01:03:36;100136.75;;;15.11;80.34
3780;BME280;1905;52.482;9.802;2023-08-31T01:06:12;100143.88;;;15.10;80.62
3780;BME280;1905;52.482;9.802;2023-08-31T01:08:48;100143.97;;;15.09;80.25
3780;BME280;1905;52.482;9.802;2023-08-31T01:11:22;100150.34;;;15.06;80.46
3780;BME280;1905;52.482;9.802;2023-08-31T01:13:58;100143.78;;;14.99;80.67
3780;BME280;1905;52.482;9.802;2023-08-31T01:16:30;100145.69;;;14.97;81.08
3780;BME280;1905;52.482;9.802;2023-08-31T01:19:04;100141.22;;;14.98;80.59
3780;BME280;1905;52.482;9.802;2023-08-31T01:21:37;100138.78;;;14.95;80.83
3780;BME280;1905;52.482;9.802;2023-08-31T01:24:09;100141.88;;;14.88;81.39
3780;BME280;1905;52.482;9.802;2023-08-31T01:26:38;100157.63;;;14.92;81.34
3780;BME280;1905;52.482;9.802;2023-08-31T01:29:07;100148.88;;;14.89;80.41
3780;BME280;1905;52.482;9.802;2023-08-31T01:31:41;100151.78;;;14.86;81.64
3780;BME280;1905;52.482;9.802;2023-08-31T01:34:09;100151.22;;;14.81;81.70
3780;BME280;1905;52.482;9.802;2023-08-31T01:36:47;100147.63;;;14.82;80.94
3780;BME280;1905;52.482;9.802;2023-08-31T01:39:24;100153.25;;;14.78;81.26
3780;BME280;1905;52.482;9.802;2023-08-31T01:41:57;100162.31;;;14.75;81.32
3780;BME280;1905;52.482;9.802;2023-08-31T01:44:30;100156.97;;;14.75;80.81
3780;BME280;1905;52.482;9.802;2023-08-31T01:47:03;100169.50;;;14.73;81.20
3780;BME280;1905;52.482;9.802;2023-08-31T01:49:36;100172.63;;;14.67;80.97
3780;BME280;1905;52.482;9.802;2023-08-31T01:52:04;100164.41;;;14.70;80.85
3780;BME280;1905;52.482;9.802;2023-08-31T01:54:34;100178.00;;;14.66;81.10
3780;BME280;1905;52.482;9.802;2023-08-31T01:57:04;100172.06;;;14.62;81.47
3780;BME280;1905;52.482;9.802;2023-08-31T01:59:33;100180.13;;;14.61;80.89
3780;BME280;1905;52.482;9.802;2023-08-31T02:02:01;100179.41;;;14.59;81.87
3780;BME280;1905;52.482;9.802;2023-08-31T02:04:30;100186.72;;;14.55;81.53
3780;BME280;1905;52.482;9.802;2023-08-31T02:06:58;100181.63;;;14.52;81.02
3780;BME280;1905;52.482;9.802;2023-08-31T02:09:26;100179.28;;;14.48;81.89
3780;BME280;1905;52.482;9.802;2023-08-31T02:11:55;100181.81;;;14.49;81.81
3780;BME280;1905;52.482;9.802;2023-08-31T02:14:25;100182.78;;;14.48;81.33
3780;BME280;1905;52.482;9.802;2023-08-31T02:16:53;100185.44;;;14.48;81.44
3780;BME280;1905;52.482;9.802;2023-08-31T02:19:20;100189.25;;;14.44;81.37
3780;BME280;1905;52.482;9.802;2023-08-31T02:21:48;100188.50;;;14.42;81.65
3780;BME280;1905;52.482;9.802;2023-08-31T02:24:15;100197.44;;;14.41;81.85
3780;BME280;1905;52.482;9.802;2023-08-31T02:26:43;100193.16;;;14.39;81.50
3780;BME280;1905;52.482;9.802;2023-08-31T02:29:12;100196.03;;;14.36;81.84
3780;BME280;1905;52.482;9.802;2023-08-31T02:31:40;100193.50;;;14.34;81.22
3780;BME280;1905;52.482;9.802;2023-08-31T02:34:08;100199.91;;;14.30;81.73
3780;BME280;1905;52.482;9.802;2023-08-31T02:36:35;100210.53;;;14.30;81.27
3780;BME280;1905;52.482;9.802;2023-08-31T02:39:03;100211.72;;;14.26;81.94
3780;BME280;1905;52.482;9.802;2023-08-31T02:41:31;100198.50;;;14.24;82.03
3780;BME280;1905;52.482;9.802;2023-08-31T02:43:59;100205.66;;;14.24;82.21
3780;BME280;1905;52.482;9.802;2023-08-31T02:46:28;100202.88;;;14.25;81.75
3780;BME280;1905;52.482;9.802;2023-08-31T02:48:56;100207.34;;;14.25;81.29
3780;BME280;1905;52.482;9.802;2023-08-31T02:51:24;100206.81;;;14.20;81.89
3780;BME280;1905;52.482;9.802;2023-08-31T02:53:51;100205.94;;;14.19;81.92
3780;BME280;1905;52.482;9.802;2023-08-31T02:56:19;100211.38;;;14.18;82.18
3780;BME280;1905;52.482;9.802;2023-08-31T02:58:47;100202.63;;;14.16;82.33
3780;BME280;1905;52.482;9.802;2023-08-31T03:01:15;100208.91;;;14.15;81.83
3780;BME280;1905;52.482;9.802;2023-08-31T03:03:47;100208.38;;;14.10;82.05
3780;BME280;1905;52.482;9.802;2023-08-31T03:06:15;100203.91;;;14.10;81.43
3780;BME280;1905;52.482;9.802;2023-08-31T03:08:43;100209.31;;;14.09;81.96
3780;BME280;1905;52.482;9.802;2023-08-31T03:11:12;100204.19;;;14.06;82.09
3780;BME280;1905;52.482;9.802;2023-08-31T03:13:41;100206.84;;;14.06;82.08
3780;BME280;1905;52.482;9.802;2023-08-31T03:16:11;100214.81;;;14.06;82.39
3780;BME280;1905;52.482;9.802;2023-08-31T03:18:38;100215.97;;;14.02;81.69
3780;BME280;1905;52.482;9.802;2023-08-31T03:21:07;100210.88;;;13.99;81.63
3780;BME280;1905;52.482;9.802;2023-08-31T03:23:35;100208.22;;;13.99;82.58
3780;BME280;1905;52.482;9.802;2023-08-31T03:26:06;100205.63;;;13.97;81.94
3780;BME280;1905;52.482;9.802;2023-08-31T03:28:35;100201.38;;;13.95;81.96
3780;BME280;1905;52.482;9.802;2023-08-31T03:31:04;100204.03;;;13.95;82.30
3780;BME280;1905;52.482;9.802;2023-08-31T03:33:32;100203.28;;;13.93;82.03
3780;BME280;1905;52.482;9.802;2023-08-31T03:36:00;100205.00;;;13.94;81.91
3780;BME280;1905;52.482;9.802;2023-08-31T03:38:33;100201.81;;;13.89;82.25
3780;BME280;1905;52.482;9.802;2023-08-31T03:41:04;100200.28;;;13.85;82.27
3780;BME280;1905;52.482;9.802;2023-08-31T03:43:31;100205.59;;;13.85;82.04
3780;BME280;1905;52.482;9.802;2023-08-31T03:46:00;100202.19;;;13.83;82.17
3780;BME280;1905;52.482;9.802;2023-08-31T03:48:27;100200.47;;;13.82;82.04
3780;BME280;1905;52.482;9.802;2023-08-31T03:50:56;100209.50;;;13.79;82.97
3780;BME280;1905;52.482;9.802;2023-08-31T03:53:23;100215.00;;;13.76;82.22
3780;BME280;1905;52.482;9.802;2023-08-31T03:55:57;100209.69;;;13.76;82.34
3780;BME280;1905;52.482;9.802;2023-08-31T03:58:25;100222.31;;;13.72;82.34
3780;BME280;1905;52.482;9.802;2023-08-31T04:00:53;100215.31;;;13.71;82.27
3780;BME280;1905;52.482;9.802;2023-08-31T04:03:21;100214.56;;;13.69;82.67
3780;BME280;1905;52.482;9.802;2023-08-31T04:05:53;100221.84;;;13.66;82.50
3780;BME280;1905;52.482;9.802;2023-08-31T04:08:21;100218.47;;;13.64;82.77
3780;BME280;1905;52.482;9.802;2023-08-31T04:10:49;100222.91;;;13.63;81.90
3780;BME280;1905;52.482;9.802;2023-08-31T04:13:18;100230.94;;;13.62;82.28
3780;BME280;1905;52.482;9.802;2023-08-31T04:15:45;100232.97;;;13.58;82.15
3780;BME280;1905;52.482;9.802;2023-08-31T04:18:14;100232.00;;;13.59;82.17
3780;BME280;1905;52.482;9.802;2023-08-31T04:20:48;100227.94;;;13.54;82.41
3780;BME280;1905;52.482;9.802;2023-08-31T04:23:16;100244.69;;;13.54;82.23
3780;BME280;1905;52.482;9.802;2023-08-31T04:25:44;100238.53;;;13.54;82.84
3780;BME280;1905;52.482;9.802;2023-08-31T04:28:11;100237.69;;;13.53;82.64
3780;BME280;1905;52.482;9.802;2023-08-31T04:30:40;100245.63;;;13.53;82.41
3780;BME280;1905;52.482;9.802;2023-08-31T04:33:09;100251.91;;;13.52;82.57
3780;BME280;1905;52.482;9.802;2023-08-31T04:35:37;100257.22;;;13.52;82.66
3780;BME280;1905;52.482;9.802;2023-08-31T04:38:05;100260.81;;;13.51;82.34
3780;BME280;1905;52.482;9.802;2023-08-31T04:40:33;100260.06;;;13.49;82.89
3780;BME280;1905;52.482;9.802;2023-08-31T04:43:00;100259.31;;;13.47;82.60
3780;BME280;1905;52.482;9.802;2023-08-31T04:45:28;100256.66;;;13.47;82.45
3780;BME280;1905;52.482;9.802;2023-08-31T04:47:58;100257.41;;;13.49;82.04
3780;BME280;1905;52.482;9.802;2023-08-31T04:50:26;100258.34;;;13.48;82.90
3780;BME280;1905;52.482;9.802;2023-08-31T04:52:53;100255.69;;;13.48;82.19
3780;BME280;1905;52.482;9.802;2023-08-31T04:55:21;100262.53;;;13.52;82.32
3780;BME280;1905;52.482;9.802;2023-08-31T04:57:49;100252.97;;;13.50;82.20
3780;BME280;1905;52.482;9.802;2023-08-31T05:00:18;100258.28;;;13.50;82.92
3780;BME280;1905;52.482;9.802;2023-08-31T05:02:45;100264.44;;;13.50;82.47
3780;BME280;1905;52.482;9.802;2023-08-31T05:05:14;100264.22;;;13.53;82.27
3780;BME280;1905;52.482;9.802;2023-08-31T05:07:44;100268.69;;;13.53;82.40
3780;BME280;1905;52.482;9.802;2023-08-31T05:10:12;100271.41;;;13.51;82.10
3780;BME280;1905;52.482;9.802;2023-08-31T05:12:40;100271.53;;;13.50;82.08
3780;BME280;1905;52.482;9.802;2023-08-31T05:15:08;100272.16;;;13.53;82.08
3780;BME280;1905;52.482;9.802;2023-08-31T05:17:36;100282.03;;;13.51;81.91
3780;BME280;1905;52.482;9.802;2023-08-31T05:20:05;100280.06;;;13.55;81.59
3780;BME280;1905;52.482;9.802;2023-08-31T05:22:36;100283.00;;;13.50;82.07
3780;BME280;1905;52.482;9.802;2023-08-31T05:25:04;100274.00;;;13.53;82.40
3780;BME280;1905;52.482;9.802;2023-08-31T05:27:32;100288.38;;;13.49;82.30
3780;BME280;1905;52.482;9.802;2023-08-31T05:30:00;100290.97;;;13.50;82.06
3780;BME280;1905;52.482;9.802;2023-08-31T05:32:28;100297.09;;;13.51;82.22
3780;BME280;1905;52.482;9.802;2023-08-31T05:34:56;100284.69;;;13.51;82.01
3780;BME280;1905;52.482;9.802;2023-08-31T05:37:24;100287.34;;;13.51;82.64
3780;BME280;1905;52.482;9.802;2023-08-31T05:39:53;100288.09;;;13.53;82.15
3780;BME280;1905;52.482;9.802;2023-08-31T05:42:21;100294.19;;;13.55;82.23
3780;BME280;1905;52.482;9.802;2023-08-31T05:44:49;100288.09;;;13.53;82.89
3780;BME280;1905;52.482;9.802;2023-08-31T05:47:21;100297.59;;;13.57;82.25
3780;BME280;1905;52.482;9.802;2023-08-31T05:49:48;100301.94;;;13.58;81.80
3780;BME280;1905;52.482;9.802;2023-08-31T05:52:17;100296.84;;;13.55;82.46
3780;BME280;1905;52.482;9.802;2023-08-31T05:54:45;100297.75;;;13.54;81.81
3780;BME280;1905;52.482;9.802;2023-08-31T05:57:18;100300.34;;;13.56;82.67
3780;BME280;1905;52.482;9.802;2023-08-31T05:59:48;100305.53;;;13.57;82.53
3780;BME280;1905;52.482;9.802;2023-08-31T06:02:16;100303.63;;;13.59;81.62
3780;BME280;1905;52.482;9.802;2023-08-31T06:04:43;100309.72;;;13.61;81.78
3780;BME280;1905;52.482;9.802;2023-08-31T06:07:17;100310.47;;;13.63;82.01
3780;BME280;1905;52.482;9.802;2023-08-31T06:09:45;100310.38;;;13.65;81.96
3780;BME280;1905;52.482;9.802;2023-08-31T06:12:14;100305.25;;;13.62;82.46
3780;BME280;1905;52.482;9.802;2023-08-31T06:14:44;100313.13;;;13.63;82.30
3780;BME280;1905;52.482;9.802;2023-08-31T06:17:14;100318.44;;;13.63;82.47
3780;BME280;1905;52.482;9.802;2023-08-31T06:19:48;100314.00;;;13.64;82.69
3780;BME280;1905;52.482;9.802;2023-08-31T06:22:17;100315.66;;;13.65;83.62
3780;BME280;1905;52.482;9.802;2023-08-31T06:24:46;100316.53;;;13.65;85.96
3780;BME280;1905;52.482;9.802;2023-08-31T06:27:16;100315.59;;;13.66;84.30
3780;BME280;1905;52.482;9.802;2023-08-31T06:29:44;100317.19;;;13.69;85.85
3780;BME280;1905;52.482;9.802;2023-08-31T06:32:11;100306.59;;;13.69;84.91
3780;BME280;1905;52.482;9.802;2023-08-31T06:34:53;100312.34;;;13.76;85.50
3780;BME280;1905;52.482;9.802;2023-08-31T06:37:23;100314.06;;;13.77;84.63
3780;BME280;1905;52.482;9.802;2023-08-31T06:39:52;100309.22;;;13.83;86.51
3780;BME280;1905;52.482;9.802;2023-08-31T06:42:21;100313.31;;;13.89;86.35
3780;BME280;1905;52.482;9.802;2023-08-31T06:44:50;100315.00;;;13.90;86.53
3780;BME280;1905;52.482;9.802;2023-08-31T06:47:18;100305.91;;;13.94;85.88
3780;BME280;1905;52.482;9.802;2023-08-31T06:49:50;100315.34;;;13.98;86.81
3780;BME280;1905;52.482;9.802;2023-08-31T06:52:22;100314.22;;;14.02;85.60
3780;BME280;1905;52.482;9.802;2023-08-31T06:54:58;100310.41;;;14.06;86.14
3780;BME280;1905;52.482;9.802;2023-08-31T06:57:27;100308.50;;;14.08;84.33
3780;BME280;1905;52.482;9.802;2023-08-31T06:59:55;100308.13;;;14.14;85.31
3780;BME280;1905;52.482;9.802;2023-08-31T07:02:22;100315.88;;;14.17;84.98
3780;BME280;1905;52.482;9.802;2023-08-31T07:04:51;100321.94;;;14.19;83.78
3780;BME280;1905;52.482;9.802;2023-08-31T07:07:19;100319.88;;;14.24;83.77
3780;BME280;1905;52.482;9.802;2023-08-31T07:09:47;100323.09;;;14.29;83.67
3780;BME280;1905;52.482;9.802;2023-08-31T07:12:15;100318.59;;;14.29;83.32
3780;BME280;1905;52.482;9.802;2023-08-31T07:14:44;100323.56;;;14.36;83.04
3780;BME280;1905;52.482;9.802;2023-08-31T07:17:11;100324.09;;;14.41;83.25
3780;BME280;1905;52.482;9.802;2023-08-31T07:19:39;100319.44;;;14.44;85.06
3780;BME280;1905;52.482;9.802;2023-08-31T07:22:07;100319.44;;;14.44;84.54
3780;BME280;1905;52.482;9.802;2023-08-31T07:24:34;100317.34;;;14.49;85.14
3780;BME280;1905;52.482;9.802;2023-08-31T07:27:02;100323.19;;;14.54;84.33
3780;BME280;1905;52.482;9.802;2023-08-31T07:29:30;100326.44;;;14.59;83.54
3780;BME280;1905;52.482;9.802;2023-08-31T07:31:59;100320.88;;;14.62;83.85
3780;BME280;1905;52.482;9.802;2023-08-31T07:34:27;100321.75;;;14.63;84.87
3780;BME280;1905;52.482;9.802;2023-08-31T07:36:55;100327.72;;;14.66;85.66
3780;BME280;1905;52.482;9.802;2023-08-31T07:39:22;100330.72;;;14.74;84.16
3780;BME280;1905;52.482;9.802;2023-08-31T07:41:50;100327.94;;;14.76;84.22
3780;BME280;1905;52.482;9.802;2023-08-31T07:44:18;100333.72;;;14.82;84.44
3780;BME280;1905;52.482;9.802;2023-08-31T07:46:46;100337.78;;;14.88;84.18
3780;BME280;1905;52.482;9.802;2023-08-31T07:49:15;100340.13;;;14.93;84.19
3780;BME280;1905;52.482;9.802;2023-08-31T07:51:43;100336.19;;;14.98;83.71
3780;BME280;1905;52.482;9.802;2023-08-31T07:54:10;100341.22;;;15.03;84.19
3780;BME280;1905;52.482;9.802;2023-08-31T07:56:38;100336.53;;;15.06;84.06
3780;BME280;1905;52.482;9.802;2023-08-31T07:59:08;100333.59;;;15.11;84.59
3780;BME280;1905;52.482;9.802;2023-08-31T08:01:36;100342.09;;;15.16;83.59
3780;BME280;1905;52.482;9.802;2023-08-31T08:04:04;100344.56;;;15.19;83.91
3780;BME280;1905;52.482;9.802;2023-08-31T08:06:33;100351.03;;;15.27;82.48
3780;BME280;1905;52.482;9.802;2023-08-31T08:09:00;100354.13;;;15.34;82.67
3780;BME280;1905;52.482;9.802;2023-08-31T08:11:28;100352.97;;;15.38;83.11
3780;BME280;1905;52.482;9.802;2023-08-31T08:13:56;100350.84;;;15.43;82.40
3780;BME280;1905;52.482;9.802;2023-08-31T08:16:24;100344.28;;;15.48;81.62
3780;BME280;1905;52.482;9.802;2023-08-31T08:18:51;100352.69;;;15.55;81.35
3780;BME280;1905;52.482;9.802;2023-08-31T08:21:20;100355.25;;;15.57;81.42
3780;BME280;1905;52.482;9.802;2023-08-31T08:23:49;100352.16;;;15.50;81.95
3780;BME280;1905;52.482;9.802;2023-08-31T08:26:18;100358.88;;;15.56;82.45
3780;BME280;1905;52.482;9.802;2023-08-31T08:28:46;100364.09;;;15.57;81.52
3780;BME280;1905;52.482;9.802;2023-08-31T08:31:13;100364.50;;;15.64;81.53
3780;BME280;1905;52.482;9.802;2023-08-31T08:33:41;100369.28;;;15.71;81.20
3780;BME280;1905;52.482;9.802;2023-08-31T08:36:10;100361.31;;;15.71;81.26
3780;BME280;1905;52.482;9.802;2023-08-31T08:38:38;100368.34;;;15.72;81.54
3780;BME280;1905;52.482;9.802;2023-08-31T08:41:07;100360.25;;;15.86;80.69
3780;BME280;1905;52.482;9.802;2023-08-31T08:43:36;100362.38;;;15.81;81.15
3780;BME280;1905;52.482;9.802;2023-08-31T08:46:05;100357.47;;;15.88;81.07
3780;BME280;1905;52.482;9.802;2023-08-31T08:48:34;100360.84;;;15.90;80.70
3780;BME280;1905;52.482;9.802;2023-08-31T08:51:03;100363.22;;;15.94;81.34
3780;BME280;1905;52.482;9.802;2023-08-31T08:53:31;100364.69;;;15.98;80.45
3780;BME280;1905;52.482;9.802;2023-08-31T08:55:59;100369.81;;;16.01;80.50
3780;BME280;1905;52.482;9.802;2023-08-31T08:58:27;100366.72;;;16.07;80.30
3780;BME280;1905;52.482;9.802;2023-08-31T09:00:55;100374.28;;;16.14;81.01
3780;BME280;1905;52.482;9.802;2023-08-31T09:03:24;100365.84;;;16.20;80.41
3780;BME280;1905;52.482;9.802;2023-08-31T09:05:51;100367.31;;;16.24;79.41
3780;BME280;1905;52.482;9.802;2023-08-31T09:08:25;100353.31;;;16.33;79.50
3780;BME280;1905;52.482;9.802;2023-08-31T09:10:55;100356.28;;;16.41;79.23
3780;BME280;1905;52.482;9.802;2023-08-31T09:13:27;100364.78;;;16.46;79.37
3780;BME280;1905;52.482;9.802;2023-08-31T09:15:57;100362.88;;;16.48;77.98
3780;BME280;1905;52.482;9.802;2023-08-31T09:18:27;100359.13;;;16.50;78.74
3780;BME280;1905;52.482;9.802;2023-08-31T09:20:56;100367.56;;;16.57;78.78
3780;BME280;1905;52.482;9.802;2023-08-31T09:23:24;100355.91;;;16.58;78.46
3780;BME280;1905;52.482;9.802;2023-08-31T09:25:53;100349.63;;;16.59;78.66
3780;BME280;1905;52.482;9.802;2023-08-31T09:28:22;100355.16;;;16.69;77.96
3780;BME280;1905;52.482;9.802;2023-08-31T09:31:04;100353.94;;;16.73;78.20
3780;BME280;1905;52.482;9.802;2023-08-31T09:33:32;100355.75;;;16.72;77.51
3780;BME280;1905;52.482;9.802;2023-08-31T09:36:01;100355.53;;;16.75;78.13
3780;BME280;1905;52.482;9.802;2023-08-31T09:38:30;100356.78;;;16.82;78.40
3780;BME280;1905;52.482;9.802;2023-08-31T09:41:03;100357.00;;;16.79;78.02
3780;BME280;1905;52.482;9.802;2023-08-31T09:43:32;100356.66;;;16.84;76.81
3780;BME280;1905;52.482;9.802;2023-08-31T09:46:02;100359.97;;;16.87;77.59
3780;BME280;1905;52.482;9.802;2023-08-31T09:48:31;100366.53;;;16.94;76.99
3780;BME280;1905;52.482;9.802;2023-08-31T09:51:03;100351.38;;;16.95;76.92
3780;BME280;1905;52.482;9.802;2023-08-31T09:53:31;100353.91;;;16.96;76.40
3780;BME280;1905;52.482;9.802;2023-08-31T09:55:59;100352.00;;;16.98;76.46
3780;BME280;1905;52.482;9.802;2023-08-31T09:58:28;100356.50;;;16.98;76.55
3780;BME280;1905;52.482;9.802;2023-08-31T10:00:58;100353.22;;;17.05;76.40
3780;BME280;1905;52.482;9.802;2023-08-31T10:03:28;100355.03;;;17.05;76.55
3780;BME280;1905;52.482;9.802;2023-08-31T10:05:55;100358.16;;;16.99;75.76
3780;BME280;1905;52.482;9.802;2023-08-31T10:08:24;100354.53;;;17.00;76.20
3780;BME280;1905;52.482;9.802;2023-08-31T10:10:53;100351.16;;;16.98;75.89
3780;BME280;1905;52.482;9.802;2023-08-31T10:13:21;100350.28;;;16.97;76.25
3780;BME280;1905;52.482;9.802;2023-08-31T10:15:52;100339.63;;;16.97;76.04
3780;BME280;1905;52.482;9.802;2023-08-31T10:18:20;100350.06;;;17.00;75.93
3780;BME280;1905;52.482;9.802;2023-08-31T10:20:50;100359.88;;;17.00;76.09
3780;BME280;1905;52.482;9.802;2023-08-31T10:23:18;100345.91;;;16.96;75.65
3780;BME280;1905;52.482;9.802;2023-08-31T10:26:02;100357.84;;;17.03;75.55
3780;BME280;1905;52.482;9.802;2023-08-31T10:28:39;100348.97;;;17.03;75.64
3780;BME280;1905;52.482;9.802;2023-08-31T10:31:07;100358.34;;;17.08;74.89
3780;BME280;1905;52.482;9.802;2023-08-31T10:33:39;100352.28;;;17.06;75.06
3780;BME280;1905;52.482;9.802;2023-08-31T10:36:14;100347.91;;;17.05;75.19
3780;BME280;1905;52.482;9.802;2023-08-31T10:38:44;100343.06;;;17.10;75.74
3780;BME280;1905;52.482;9.802;2023-08-31T10:41:20;100341.63;;;17.17;75.62
3780;BME280;1905;52.482;9.802;2023-08-31T10:43:50;100344.03;;;17.20;75.67
3780;BME280;1905;52.482;9.802;2023-08-31T10:46:28;100346.00;;;17.18;75.78
3780;BME280;1905;52.482;9.802;2023-08-31T10:48:57;100348.66;;;17.18;75.38
3780;BME280;1905;52.482;9.802;2023-08-31T10:51:28;100350.84;;;17.13;74.49
3780;BME280;1905;52.482;9.802;2023-08-31T10:54:19;100345.03;;;17.19;74.68
3780;BME280;1905;52.482;9.802;2023-08-31T10:56:56;100349.28;;;17.22;73.75
3780;BME280;1905;52.482;9.802;2023-08-31T10:59:49;100355.25;;;17.25;73.48
3780;BME280;1905;52.482;9.802;2023-08-31T11:02:32;100352.31;;;17.28;73.41
3780;BME280;1905;52.482;9.802;2023-08-31T11:05:02;100353.06;;;17.31;73.65
3780;BME280;1905;52.482;9.802;2023-08-31T11:07:33;100357.31;;;17.33;74.18
3780;BME280;1905;52.482;9.802;2023-08-31T11:10:11;100359.63;;;17.38;74.45
3780;BME280;1905;52.482;9.802;2023-08-31T11:12:40;100359.63;;;17.38;73.39
3780;BME280;1905;52.482;9.802;2023-08-31T11:15:11;100352.13;;;17.43;73.56
3780;BME280;1905;52.482;9.802;2023-08-31T11:17:39;100359.53;;;17.50;73.56
3780;BME280;1905;52.482;9.802;2023-08-31T11:20:08;100352.59;;;17.48;72.44
3780;BME280;1905;52.482;9.802;2023-08-31T11:22:42;100349.69;;;17.51;73.26
3780;BME280;1905;52.482;9.802;2023-08-31T11:25:13;100345.63;;;17.58;73.15
3780;BME280;1905;52.482;9.802;2023-08-31T11:27:41;100350.13;;;17.57;72.11
3780;BME280;1905;52.482;9.802;2023-08-31T11:30:14;100349.88;;;17.60;72.33
3780;BME280;1905;52.482;9.802;2023-08-31T11:32:46;100350.59;;;17.62;71.32
3780;BME280;1905;52.482;9.802;2023-08-31T11:35:14;100349.03;;;17.71;71.18
3780;BME280;1905;52.482;9.802;2023-08-31T11:37:44;100363.03;;;17.74;71.33
3780;BME280;1905;52.482;9.802;2023-08-31T11:40:13;100355.09;;;17.73;70.93
3780;BME280;1905;52.482;9.802;2023-08-31T11:42:42;100368.72;;;17.81;71.55
3780;BME280;1905;52.482;9.802;2023-08-31T11:45:10;100351.72;;;17.82;70.37
3780;BME280;1905;52.482;9.802;2023-08-31T11:47:41;100344.91;;;17.89;71.33
3780;BME280;1905;52.482;9.802;2023-08-31T11:50:09;100352.69;;;17.92;72.30
3780;BME280;1905;52.482;9.802;2023-08-31T11:52:38;100343.94;;;18.01;71.71
3780;BME280;1905;52.482;9.802;2023-08-31T11:55:11;100351.72;;;18.04;72.19
3780;BME280;1905;52.482;9.802;2023-08-31T11:57:40;100345.63;;;18.02;71.14
3780;BME280;1905;52.482;9.802;2023-08-31T12:00:08;100337.84;;;18.10;71.35
3780;BME280;1905;52.482;9.802;2023-08-31T12:02:37;100339.41;;;18.13;70.45
3780;BME280;1905;52.482;9.802;2023-08-31T12:05:05;100350.34;;;18.21;71.43
3780;BME280;1905;52.482;9.802;2023-08-31T12:07:39;100348.19;;;18.26;71.47
3780;BME280;1905;52.482;9.802;2023-08-31T12:10:07;100358.34;;;18.32;70.92
3780;BME280;1905;52.482;9.802;2023-08-31T12:12:36;100353.63;;;18.35;70.27
3780;BME280;1905;52.482;9.802;2023-08-31T12:15:06;100351.41;;;18.40;69.87
3780;BME280;1905;52.482;9.802;2023-08-31T12:17:37;100354.56;;;18.45;71.35
3780;BME280;1905;52.482;9.802;2023-08-31T12:20:06;100354.09;;;18.52;70.04
3780;BME280;1905;52.482;9.802;2023-08-31T12:22:34;100365.28;;;18.57;69.77
3780;BME280;1905;52.482;9.802;2023-08-31T12:25:02;100346.28;;;18.60;69.74
3780;BME280;1905;52.482;9.802;2023-08-31T12:27:31;100354.78;;;18.65;69.17
3780;BME280;1905;52.482;9.802;2023-08-31T12:30:00;100350.03;;;18.68;69.46
3780;BME280;1905;52.482;9.802;2023-08-31T12:32:28;100350.91;;;18.69;68.58
3780;BME280;1905;52.482;9.802;2023-08-31T12:34:56;100359.38;;;18.74;68.13
3780;BME280;1905;52.482;9.802;2023-08-31T12:37:24;100355.25;;;18.70;69.05
3780;BME280;1905;52.482;9.802;2023-08-31T12:39:52;100364.13;;;18.70;68.85
3780;BME280;1905;52.482;9.802;2023-08-31T12:42:19;100355.25;;;18.70;69.37
3780;BME280;1905;52.482;9.802;2023-08-31T12:44:49;100351.38;;;18.74;68.67
3780;BME280;1905;52.482;9.802;2023-08-31T12:47:18;100351.50;;;18.72;67.87
3780;BME280;1905;52.482;9.802;2023-08-31T12:49:46;100353.69;;;18.67;66.80
3780;BME280;1905;52.482;9.802;2023-08-31T12:52:13;100356.00;;;18.72;67.09
3780;BME280;1905;52.482;9.802;2023-08-31T12:54:41;100357.69;;;18.73;69.03
3780;BME280;1905;52.482;9.802;2023-08-31T12:57:09;100357.44;;;18.76;67.47
3780;BME280;1905;52.482;9.802;2023-08-31T12:59:37;100361.94;;;18.75;68.66
3780;BME280;1905;52.482;9.802;2023-08-31T13:02:04;100371.81;;;18.75;67.82
3780;BME280;1905;52.482;9.802;2023-08-31T13:04:38;100378.38;;;18.71;67.40
3780;BME280;1905;52.482;9.802;2023-08-31T13:07:07;100379.94;;;18.73;67.38
3780;BME280;1905;52.482;9.802;2023-08-31T13:09:35;100389.22;;;18.69;67.69
3780;BME280;1905;52.482;9.802;2023-08-31T13:12:03;100389.31;;;18.68;68.88
3780;BME280;1905;52.482;9.802;2023-08-31T13:14:31;100385.44;;;18.72;68.23
3780;BME280;1905;52.482;9.802;2023-08-31T13:16:58;100397.09;;;18.71;68.01
3780;BME280;1905;52.482;9.802;2023-08-31T13:19:26;100395.13;;;18.73;68.62
3780;BME280;1905;52.482;9.802;2023-08-31T13:21:56;100388.09;;;18.72;67.56